Time;durP1;ratioP1;P1;durP2;ratioP2;P2;SDS_P1;SDS_P2;PMS_P1;PMS_P2;Temp;Humidity;BMP_temperature;BMP_pressure;BME280_temperature;BME280_humidity;BME280_pressure;Samples;Min_cycle;Max_cycle;Signal;HPM_P1;HPM_P2
2023/09/08 00:00:12;;;;;;;6.15;4.75;;;21.60;99.90;;;;;;5083540;28;20203;-70
2023/09/08 00:02:37;;;;;;;8.85;4.97;;;21.60;99.90;;;;;;5072619;28;20209;-72
2023/09/08 00:05:03;;;;;;;9.43;4.95;;;21.60;99.90;;;;;;5083686;28;20218;-71
2023/09/08 00:07:29;;;;;;;8.85;5.03;;;21.60;99.90;;;;;;5077732;28;20989;-71
2023/09/08 00:09:54;;;;;;;8.13;5.32;;;21.70;99.90;;;;;;5081985;28;20178;-71
2023/09/08 00:12:21;;;;;;;7.90;4.95;;;21.60;99.90;;;;;;5083068;28;20615;-72
2023/09/08 00:14:46;;;;;;;7.72;4.80;;;21.50;99.90;;;;;;5083448;28;20209;-71
2023/09/08 00:17:12;;;;;;;9.05;5.55;;;21.50;99.90;;;;;;5090019;28;20289;-69
2023/09/08 00:19:38;;;;;;;6.88;4.55;;;21.50;99.90;;;;;;5083465;28;20603;-71
2023/09/08 00:22:05;;;;;;;5.68;4.80;;;21.60;99.90;;;;;;5089417;28;20206;-71
2023/09/08 00:24:31;;;;;;;8.63;5.07;;;21.50;99.90;;;;;;5089007;28;20244;-72
2023/09/08 00:26:57;;;;;;;8.27;4.93;;;21.50;99.90;;;;;;5088745;28;20285;-71
2023/09/08 00:29:22;;;;;;;8.45;5.13;;;21.50;99.90;;;;;;5082208;28;20207;-71
2023/09/08 00:31:48;;;;;;;8.02;5.28;;;21.50;99.90;;;;;;5088820;28;20703;-72
2023/09/08 00:34:14;;;;;;;8.95;5.00;;;21.40;99.90;;;;;;5082705;28;20692;-71
2023/09/08 00:36:39;;;;;;;8.35;5.30;;;21.40;99.90;;;;;;5085281;28;20202;-72
2023/09/08 00:39:05;;;;;;;12.32;5.43;;;21.40;99.90;;;;;;5082435;28;20214;-70
2023/09/08 00:41:30;;;;;;;10.43;5.55;;;21.30;99.90;;;;;;5080621;28;20697;-72
2023/09/08 00:43:56;;;;;;;8.20;4.85;;;21.20;99.90;;;;;;5081956;28;20281;-72
2023/09/08 00:46:22;;;;;;;7.68;5.32;;;21.30;99.90;;;;;;5080885;28;20229;-72
2023/09/08 00:48:47;;;;;;;6.40;5.30;;;21.30;99.90;;;;;;5083281;28;20170;-72
2023/09/08 00:51:13;;;;;;;9.18;5.55;;;21.20;99.90;;;;;;5082455;28;20217;-70
2023/09/08 00:53:39;;;;;;;10.10;5.80;;;21.20;99.90;;;;;;5086886;28;20226;-72
2023/09/08 00:56:05;;;;;;;8.60;5.25;;;21.30;99.90;;;;;;5082612;28;20286;-71
2023/09/08 00:58:31;;;;;;;7.70;5.05;;;21.20;99.90;;;;;;5082617;28;20207;-72
2023/09/08 01:00:59;;;;;;;6.53;5.00;;;21.20;99.90;;;;;;5084635;28;20257;-72
2023/09/08 01:03:25;;;;;;;9.23;4.93;;;21.10;99.90;;;;;;5084205;28;20206;-72
2023/09/08 01:05:52;;;;;;;7.40;4.90;;;21.10;99.90;;;;;;5084798;28;20217;-71
2023/09/08 01:08:18;;;;;;;8.90;5.20;;;21.10;99.90;;;;;;5082596;28;20211;-72
2023/09/08 01:10:45;;;;;;;8.27;5.65;;;21.10;99.90;;;;;;5085129;28;20293;-72
2023/09/08 01:13:10;;;;;;;7.53;4.82;;;21.10;99.90;;;;;;5077372;28;20207;-72
2023/09/08 01:15:36;;;;;;;13.05;5.88;;;21.00;99.90;;;;;;5083308;28;20163;-73
2023/09/08 01:18:02;;;;;;;7.57;5.18;;;21.10;99.90;;;;;;5081447;28;20202;-72
2023/09/08 01:20:42;;;;;;;8.00;5.90;;;21.10;99.90;;;;;;5079988;28;20218;-72
2023/09/08 01:23:43;;;;;;;5.93;5.28;;;21.00;99.90;;;;;;5080236;28;20221;-72
2023/09/08 01:26:13;;;;;;;9.35;5.63;;;21.00;99.90;;;;;;5068435;28;20236;-72
2023/09/08 01:28:40;;;;;;;6.57;5.18;;;21.00;99.90;;;;;;5067864;28;20324;-72
2023/09/08 01:31:07;;;;;;;6.40;5.18;;;20.90;99.90;;;;;;5082766;28;20753;-71
2023/09/08 01:33:33;;;;;;;8.85;5.45;;;20.90;99.90;;;;;;5085461;28;20191;-72
2023/09/08 01:35:58;;;;;;;6.65;5.30;;;20.80;99.90;;;;;;5085088;28;20207;-73
2023/09/08 01:38:25;;;;;;;7.50;5.25;;;20.80;99.90;;;;;;5082737;28;20209;-72
2023/09/08 01:40:50;;;;;;;7.05;5.15;;;20.70;99.90;;;;;;5082853;28;20199;-72
2023/09/08 01:43:16;;;;;;;7.75;5.78;;;20.70;99.90;;;;;;5084630;28;20224;-72
2023/09/08 01:45:41;;;;;;;8.48;5.30;;;20.70;99.90;;;;;;5086184;28;20656;-72
2023/09/08 01:48:07;;;;;;;6.22;4.97;;;20.70;99.90;;;;;;5082723;28;20206;-71
2023/09/08 01:50:33;;;;;;;10.02;5.82;;;20.60;99.90;;;;;;5079799;28;20203;-72
2023/09/08 01:52:58;;;;;;;9.30;5.22;;;20.70;99.90;;;;;;5083095;28;20297;-72
2023/09/08 01:55:24;;;;;;;6.30;5.28;;;20.60;99.90;;;;;;5062094;28;20207;-72
2023/09/08 01:57:49;;;;;;;8.48;5.38;;;20.60;99.90;;;;;;5082394;28;20185;-72
2023/09/08 02:00:15;;;;;;;7.00;5.57;;;20.50;99.90;;;;;;5079061;28;20293;-72
2023/09/08 02:02:41;;;;;;;8.18;5.25;;;20.50;99.90;;;;;;5063161;28;20564;-71
2023/09/08 02:05:08;;;;;;;7.43;5.60;;;20.40;99.90;;;;;;5064887;28;20308;-72
2023/09/08 02:07:33;;;;;;;6.63;5.53;;;20.30;99.90;;;;;;5087520;28;20217;-72
2023/09/08 02:09:59;;;;;;;7.78;5.70;;;20.30;99.90;;;;;;5081662;28;20171;-72
2023/09/08 02:12:24;;;;;;;10.25;5.75;;;20.40;99.90;;;;;;5087330;28;20671;-71
2023/09/08 02:14:51;;;;;;;8.20;5.60;;;20.30;99.90;;;;;;5084877;28;20385;-72
2023/09/08 02:17:17;;;;;;;5.18;4.65;;;20.30;99.90;;;;;;5086080;28;20651;-71
2023/09/08 02:19:43;;;;;;;7.72;5.75;;;20.30;99.90;;;;;;5084705;28;20202;-72
2023/09/08 02:22:09;;;;;;;8.68;5.57;;;20.20;99.90;;;;;;5078993;28;20799;-71
2023/09/08 02:24:34;;;;;;;8.90;6.25;;;20.30;99.90;;;;;;5086118;28;20589;-72
2023/09/08 02:27:00;;;;;;;8.77;5.57;;;20.30;99.90;;;;;;5088846;28;20198;-72
2023/09/08 02:29:26;;;;;;;8.13;5.93;;;20.30;99.90;;;;;;5082219;28;20225;-72
2023/09/08 02:31:51;;;;;;;9.15;5.75;;;20.20;99.90;;;;;;5089075;28;20210;-72
2023/09/08 02:34:17;;;;;;;10.60;6.22;;;20.10;99.90;;;;;;5083548;28;20222;-72
2023/09/08 02:36:43;;;;;;;7.20;5.38;;;20.20;99.90;;;;;;5084375;28;20179;-72
2023/09/08 02:39:08;;;;;;;8.90;6.07;;;20.20;99.90;;;;;;5083299;28;20237;-68
2023/09/08 02:41:34;;;;;;;7.82;6.45;;;20.10;99.90;;;;;;5081028;28;20256;-72
2023/09/08 02:44:00;;;;;;;8.95;5.75;;;20.00;99.90;;;;;;5082678;28;20198;-71
2023/09/08 02:46:25;;;;;;;7.63;5.95;;;20.00;99.90;;;;;;5084469;28;20276;-70
2023/09/08 02:48:52;;;;;;;8.95;6.13;;;20.00;99.90;;;;;;5082936;28;20182;-72
2023/09/08 02:51:18;;;;;;;9.52;6.22;;;20.00;99.90;;;;;;5084316;28;20206;-71
2023/09/08 02:53:44;;;;;;;6.93;5.85;;;20.00;99.90;;;;;;5081590;28;20681;-71
2023/09/08 02:56:09;;;;;;;8.35;6.40;;;19.90;99.90;;;;;;5085114;28;20202;-71
2023/09/08 02:58:35;;;;;;;10.35;6.07;;;19.90;99.90;;;;;;5081453;28;20222;-71
2023/09/08 03:01:15;;;;;;;8.43;5.97;;;19.90;99.90;;;;;;5084074;28;20163;-72
2023/09/08 03:03:41;;;;;;;7.88;5.55;;;19.80;99.90;;;;;;5066121;28;20260;-71
2023/09/08 03:06:08;;;;;;;7.43;6.03;;;19.80;99.90;;;;;;5084195;28;20210;-70
2023/09/08 03:08:34;;;;;;;8.40;5.97;;;19.70;99.90;;;;;;5081459;28;20747;-72
2023/09/08 03:10:59;;;;;;;10.07;6.13;;;19.60;99.90;;;;;;5084335;28;20241;-71
2023/09/08 03:13:26;;;;;;;7.72;5.93;;;19.60;99.90;;;;;;5081216;28;20309;-72
2023/09/08 03:15:52;;;;;;;7.35;5.75;;;19.60;99.90;;;;;;5066907;28;20170;-72
2023/09/08 03:18:18;;;;;;;8.77;6.25;;;19.70;99.90;;;;;;5080961;28;20684;-73
2023/09/08 03:20:48;;;;;;;12.18;6.70;;;19.70;99.90;;;;;;5081421;28;20210;-71
2023/09/08 03:23:14;;;;;;;9.13;6.65;;;19.50;99.90;;;;;;5067057;28;20214;-71
2023/09/08 03:25:40;;;;;;;7.70;6.13;;;19.50;99.90;;;;;;5081450;28;20226;-72
2023/09/08 03:28:05;;;;;;;9.15;6.22;;;19.30;99.90;;;;;;5083295;28;20191;-70
2023/09/08 03:30:31;;;;;;;7.95;6.00;;;19.40;99.90;;;;;;5083659;28;20247;-71
2023/09/08 03:32:56;;;;;;;8.00;6.22;;;19.30;99.90;;;;;;5084053;28;20239;-72
2023/09/08 03:35:22;;;;;;;9.90;7.22;;;19.40;99.90;;;;;;5083978;28;20221;-72
2023/09/08 03:37:48;;;;;;;11.43;6.32;;;19.40;99.90;;;;;;5081524;28;20647;-71
2023/09/08 03:40:13;;;;;;;9.60;6.43;;;19.30;99.90;;;;;;5083326;28;20210;-72
2023/09/08 03:42:41;;;;;;;11.63;6.18;;;19.30;99.90;;;;;;5080916;28;20738;-72
2023/09/08 03:45:07;;;;;;;8.98;6.75;;;19.30;99.90;;;;;;5084082;28;20210;-71
2023/09/08 03:47:32;;;;;;;9.85;6.80;;;19.40;99.90;;;;;;5079984;28;20203;-72
2023/09/08 03:49:58;;;;;;;10.20;6.15;;;19.30;99.90;;;;;;5084217;28;20706;-72
2023/09/08 03:52:24;;;;;;;9.30;6.80;;;19.20;99.90;;;;;;5062726;28;20257;-72
2023/09/08 03:54:49;;;;;;;11.02;6.20;;;19.30;99.90;;;;;;5062475;28;20187;-73
2023/09/08 03:57:15;;;;;;;12.10;7.00;;;19.20;99.90;;;;;;5082608;28;20264;-71
2023/09/08 03:59:40;;;;;;;8.73;6.45;;;19.20;99.90;;;;;;5081796;28;20303;-72
2023/09/08 04:02:06;;;;;;;7.53;6.25;;;19.10;99.90;;;;;;5081747;28;20219;-71
2023/09/08 04:04:32;;;;;;;9.68;6.53;;;19.10;99.90;;;;;;5082747;28;20222;-69
2023/09/08 04:06:57;;;;;;;10.43;6.45;;;19.10;99.90;;;;;;5081154;28;20167;-72
2023/09/08 04:09:23;;;;;;;12.20;7.22;;;19.10;99.90;;;;;;5065387;28;20174;-72
2023/09/08 04:11:48;;;;;;;10.52;6.40;;;19.20;99.90;;;;;;5059749;28;20712;-72
2023/09/08 04:14:14;;;;;;;9.43;6.90;;;19.10;99.90;;;;;;5067804;28;20213;-72
2023/09/08 04:16:40;;;;;;;11.27;6.72;;;18.90;99.90;;;;;;5079480;28;20211;-72
2023/09/08 04:19:05;;;;;;;9.20;6.72;;;18.90;99.90;;;;;;5070533;28;20186;-71
2023/09/08 04:21:31;;;;;;;8.35;6.97;;;19.00;99.90;;;;;;5062199;28;20171;-72
2023/09/08 04:23:56;;;;;;;13.07;6.97;;;19.00;99.90;;;;;;5082075;28;20237;-72
2023/09/08 04:26:22;;;;;;;10.30;6.47;;;19.00;99.90;;;;;;5063011;28;20232;-72
2023/09/08 04:28:48;;;;;;;11.10;6.75;;;19.00;99.90;;;;;;5081370;28;20207;-72
2023/09/08 04:31:13;;;;;;;12.07;7.22;;;19.00;99.90;;;;;;5087117;28;20230;-72
2023/09/08 04:33:39;;;;;;;9.02;7.13;;;19.00;99.90;;;;;;5081566;28;20778;-72
2023/09/08 04:36:04;;;;;;;8.52;6.28;;;19.00;99.90;;;;;;5083902;28;20210;-70
2023/09/08 04:38:30;;;;;;;10.15;7.00;;;18.90;99.90;;;;;;5064807;28;20206;-74
2023/09/08 04:40:56;;;;;;;9.60;7.95;;;19.00;99.90;;;;;;5081365;28;20206;-73
2023/09/08 04:43:21;;;;;;;12.95;6.90;;;18.90;99.90;;;;;;5088536;28;20384;-72
2023/09/08 04:45:47;;;;;;;8.60;6.90;;;19.00;99.90;;;;;;5068348;28;20684;-72
2023/09/08 04:48:12;;;;;;;10.48;7.18;;;19.00;99.90;;;;;;5073143;28;20209;-73
2023/09/08 04:50:38;;;;;;;13.32;7.60;;;19.10;99.90;;;;;;5083873;28;20255;-72
2023/09/08 04:53:04;;;;;;;12.27;7.47;;;19.10;99.90;;;;;;5086073;28;20700;-71
2023/09/08 04:55:29;;;;;;;15.43;7.43;;;19.20;99.90;;;;;;5065447;28;20221;-71
2023/09/08 04:57:55;;;;;;;9.65;6.50;;;19.30;99.90;;;;;;5065110;28;20179;-72
2023/09/08 05:00:21;;;;;;;10.00;7.13;;;19.50;99.90;;;;;;5083052;28;20170;-72
2023/09/08 05:02:46;;;;;;;9.15;7.65;;;19.50;99.90;;;;;;5081522;28;20210;-72
2023/09/08 05:05:12;;;;;;;11.95;7.63;;;19.90;99.90;;;;;;5082761;28;20301;-72
2023/09/08 05:07:38;;;;;;;10.07;7.28;;;19.90;99.90;;;;;;5061232;28;20199;-70
2023/09/08 05:10:03;;;;;;;12.95;8.65;;;19.70;99.90;;;;;;5090248;28;20257;-72
2023/09/08 05:12:29;;;;;;;13.95;7.68;;;19.60;99.90;;;;;;5090457;28;20201;-71
2023/09/08 05:14:59;;;;;;;14.45;7.78;;;19.60;99.90;;;;;;5088583;28;20217;-72
2023/09/08 05:17:26;;;;;;;11.60;7.47;;;19.50;99.90;;;;;;5072671;28;20214;-72
2023/09/08 05:19:52;;;;;;;10.00;6.60;;;19.60;99.90;;;;;;5068600;28;20702;-72
2023/09/08 05:22:17;;;;;;;8.13;7.00;;;19.70;99.90;;;;;;5087376;28;20253;-72
2023/09/08 05:24:43;;;;;;;11.30;6.70;;;20.00;99.90;;;;;;5088603;28;20208;-71
2023/09/08 05:27:09;;;;;;;14.18;6.43;;;21.10;99.90;;;;;;5082004;28;20255;-72
2023/09/08 05:29:34;;;;;;;10.13;5.93;;;22.30;99.90;;;;;;5062179;28;20217;-72
2023/09/08 05:32:00;;;;;;;9.88;6.20;;;23.40;99.90;;;;;;5066197;28;20210;-73
2023/09/08 05:34:25;;;;;;;8.45;5.97;;;22.60;99.90;;;;;;5065730;28;20218;-72
2023/09/08 05:36:51;;;;;;;11.45;6.22;;;24.00;99.90;;;;;;5064234;28;20175;-72
2023/09/08 05:39:18;;;;;;;10.70;6.38;;;24.80;99.90;;;;;;5085666;28;20215;-70
2023/09/08 05:41:44;;;;;;;10.50;6.50;;;25.60;99.90;;;;;;5081843;28;20758;-72
2023/09/08 05:44:10;;;;;;;7.53;5.90;;;26.40;99.90;;;;;;5064444;28;20233;-72
2023/09/08 05:46:36;;;;;;;7.43;6.45;;;27.00;99.90;;;;;;5085812;28;20221;-73
2023/09/08 05:49:01;;;;;;;6.85;5.30;;;27.60;99.90;;;;;;5071500;28;20698;-72
2023/09/08 05:51:27;;;;;;;9.68;6.57;;;27.60;99.90;;;;;;5070773;28;20186;-72
2023/09/08 05:53:52;;;;;;;7.75;6.43;;;27.70;99.90;;;;;;5087390;28;20242;-72
2023/09/08 05:56:19;;;;;;;10.73;6.18;;;28.60;99.90;;;;;;5070153;28;20218;-72
2023/09/08 05:58:45;;;;;;;9.00;6.40;;;28.90;99.90;;;;;;5068733;28;20210;-72
2023/09/08 06:01:11;;;;;;;7.57;5.93;;;28.90;99.90;;;;;;5071799;28;20891;-73
2023/09/08 06:03:36;;;;;;;13.00;6.35;;;28.80;99.90;;;;;;5064975;28;20289;-73
2023/09/08 06:06:02;;;;;;;9.95;6.63;;;29.30;99.90;;;;;;5084398;28;20222;-73
2023/09/08 06:08:28;;;;;;;8.07;5.95;;;28.40;99.90;;;;;;5068351;28;20221;-73
2023/09/08 06:10:53;;;;;;;8.18;6.20;;;28.90;99.90;;;;;;5084730;28;20206;-73
2023/09/08 06:13:19;;;;;;;7.22;6.00;;;30.10;99.90;;;;;;5068309;28;20249;-72
2023/09/08 06:15:44;;;;;;;8.75;6.35;;;30.10;99.90;;;;;;5082272;28;20176;-71
2023/09/08 06:18:11;;;;;;;9.35;5.95;;;31.20;99.90;;;;;;5082614;28;20238;-71
2023/09/08 06:20:37;;;;;;;10.52;7.80;;;31.00;99.90;;;;;;5081949;28;20215;-73
2023/09/08 06:23:02;;;;;;;10.65;7.50;;;32.10;99.90;;;;;;5084337;28;20283;-71
2023/09/08 06:25:28;;;;;;;7.88;6.47;;;31.10;99.90;;;;;;5071349;28;20696;-72
2023/09/08 06:27:54;;;;;;;8.77;6.43;;;31.00;99.90;;;;;;5087200;28;20228;-72
2023/09/08 06:30:19;;;;;;;12.23;7.60;;;30.70;99.90;;;;;;5089234;28;20170;-73
2023/09/08 06:32:45;;;;;;;12.52;6.60;;;32.00;99.90;;;;;;5082863;28;20214;-70
2023/09/08 06:35:11;;;;;;;11.93;6.13;;;31.10;99.90;;;;;;5065798;28;20687;-72
2023/09/08 06:37:37;;;;;;;9.95;7.10;;;31.00;99.90;;;;;;5087424;28;20241;-72
2023/09/08 06:40:04;;;;;;;9.07;6.43;;;30.10;99.90;;;;;;5086118;28;20733;-72
2023/09/08 06:42:29;;;;;;;6.97;6.10;;;30.00;99.90;;;;;;5068432;28;20202;-73
2023/09/08 06:44:55;;;;;;;8.00;6.22;;;30.60;99.90;;;;;;5083920;28;20221;-73
2023/09/08 06:47:20;;;;;;;9.68;6.90;;;30.50;99.90;;;;;;5085355;28;20206;-75
2023/09/08 06:49:47;;;;;;;9.35;5.95;;;30.10;99.90;;;;;;5083151;28;20210;-73
2023/09/08 06:52:12;;;;;;;7.57;6.75;;;30.20;99.90;;;;;;5088379;28;20216;-73
2023/09/08 06:54:38;;;;;;;7.75;6.28;;;30.30;99.90;;;;;;5089911;28;20178;-73
2023/09/08 06:57:04;;;;;;;10.68;5.95;;;30.60;99.90;;;;;;5087672;28;20687;-72
2023/09/08 06:59:29;;;;;;;9.07;6.45;;;29.90;99.90;;;;;;5081965;28;20211;-72
2023/09/08 07:01:55;;;;;;;10.85;7.07;;;29.80;99.90;;;;;;5081550;28;20641;-72
2023/09/08 07:04:21;;;;;;;9.07;6.45;;;29.60;99.90;;;;;;5061169;28;20218;-73
2023/09/08 07:06:46;;;;;;;11.77;6.40;;;29.80;99.90;;;;;;5078659;28;20630;-73
2023/09/08 07:09:12;;;;;;;7.70;6.63;;;30.30;99.90;;;;;;5081695;28;20597;-73
2023/09/08 07:11:38;;;;;;;9.93;5.70;;;30.70;99.90;;;;;;5084248;28;20206;-71
2023/09/08 07:14:04;;;;;;;9.68;6.05;;;31.60;99.90;;;;;;5079610;28;20202;-69
2023/09/08 07:16:29;;;;;;;7.43;5.82;;;32.50;99.20;;;;;;5066143;28;20289;-71
2023/09/08 07:18:55;;;;;;;7.65;6.30;;;31.70;98.80;;;;;;5085976;28;20170;-73
2023/09/08 07:21:21;;;;;;;8.18;5.22;;;32.30;98.70;;;;;;5087047;28;20216;-70
2023/09/08 07:23:46;;;;;;;8.07;5.57;;;32.60;97.60;;;;;;5085052;28;20209;-72
2023/09/08 07:26:12;;;;;;;8.07;5.78;;;32.30;97.50;;;;;;5084332;28;20691;-70
2023/09/08 07:28:39;;;;;;;6.60;5.32;;;32.50;96.70;;;;;;5065750;28;20198;-70
2023/09/08 07:31:06;;;;;;;8.52;5.28;;;32.30;96.60;;;;;;5085817;28;20177;-70
2023/09/08 07:33:31;;;;;;;6.63;5.25;;;32.00;96.90;;;;;;5091293;28;20181;-70
2023/09/08 07:35:57;;;;;;;6.97;5.53;;;33.20;96.40;;;;;;5086720;28;20209;-71
2023/09/08 07:38:23;;;;;;;6.00;5.22;;;33.20;96.30;;;;;;5069313;28;20197;-71
2023/09/08 07:40:48;;;;;;;7.88;5.28;;;33.60;94.40;;;;;;5083362;28;20198;-72
2023/09/08 07:43:14;;;;;;;8.00;5.47;;;32.60;95.50;;;;;;5085603;28;20747;-70
2023/09/08 07:45:40;;;;;;;9.73;5.30;;;32.80;95.20;;;;;;5063124;28;20228;-70
2023/09/08 07:48:06;;;;;;;5.50;4.97;;;31.80;95.90;;;;;;5081872;28;20304;-70
2023/09/08 07:50:32;;;;;;;7.68;4.80;;;32.90;95.80;;;;;;5063232;28;20671;-71
2023/09/08 07:52:58;;;;;;;5.65;5.15;;;32.20;94.70;;;;;;5080043;28;20229;-70
2023/09/08 07:55:27;;;;;;;8.00;5.20;;;32.60;94.60;;;;;;5081295;28;20215;-71
2023/09/08 07:57:53;;;;;;;7.90;5.13;;;33.00;94.60;;;;;;5068565;28;20177;-71
2023/09/08 08:00:19;;;;;;;6.13;4.93;;;33.50;94.60;;;;;;5085221;28;20181;-71
2023/09/08 08:02:54;;;;;;;9.95;5.43;;;33.90;93.80;;;;;;5083383;28;20278;-70
2023/09/08 08:05:20;;;;;;;7.57;5.05;;;33.70;92.40;;;;;;5086466;28;20303;-71
2023/09/08 08:07:45;;;;;;;5.35;4.72;;;32.50;93.30;;;;;;5074491;28;20690;-71
2023/09/08 08:10:12;;;;;;;6.95;5.40;;;32.90;93.90;;;;;;5055740;28;20718;-71
2023/09/08 08:12:39;;;;;;;6.10;4.97;;;32.80;93.20;;;;;;5078922;28;20222;-72
2023/09/08 08:15:05;;;;;;;7.30;4.35;;;32.00;94.30;;;;;;5072211;28;20218;-71
2023/09/08 08:17:31;;;;;;;8.27;5.18;;;32.70;94.10;;;;;;5055740;28;20238;-71
2023/09/08 08:20:06;;;;;;;7.13;5.00;;;32.10;94.50;;;;;;5071235;28;20283;-70
2023/09/08 08:22:33;;;;;;;7.43;5.55;;;32.90;94.20;;;;;;5072610;28;20218;-70
2023/09/08 08:24:58;;;;;;;11.10;5.00;;;32.80;94.40;;;;;;5058377;28;20199;-71
2023/09/08 08:27:24;;;;;;;6.05;4.60;;;32.30;94.50;;;;;;5074707;28;20524;-71
2023/09/08 08:29:50;;;;;;;11.45;5.35;;;33.00;93.90;;;;;;5073004;28;20697;-74
2023/09/08 08:32:16;;;;;;;6.93;4.93;;;32.60;93.50;;;;;;5075573;28;20207;-72
2023/09/08 08:34:42;;;;;;;6.57;5.20;;;31.70;94.00;;;;;;5075036;28;20786;-72
2023/09/08 08:37:08;;;;;;;7.78;5.03;;;32.00;94.20;;;;;;5074803;28;20183;-71
2023/09/08 08:39:33;;;;;;;5.07;4.30;;;31.70;94.70;;;;;;5077952;28;20532;-73
2023/09/08 08:42:06;;;;;;;6.88;5.40;;;31.40;95.80;;;;;;5075198;28;20214;-73
2023/09/08 08:44:33;;;;;;;5.70;4.40;;;32.00;95.20;;;;;;5077523;28;20264;-72
2023/09/08 08:46:59;;;;;;;8.23;5.15;;;32.30;94.60;;;;;;5080311;28;20207;-69
2023/09/08 08:49:26;;;;;;;9.52;5.15;;;33.00;94.20;;;;;;5079407;28;20199;-72
2023/09/08 08:51:53;;;;;;;5.80;4.50;;;31.90;94.00;;;;;;5081932;28;20248;-72
2023/09/08 08:54:20;;;;;;;6.10;4.70;;;32.10;94.60;;;;;;5075694;28;20199;-72
2023/09/08 08:56:46;;;;;;;7.50;4.95;;;31.30;95.20;;;;;;5081089;28;20210;-71
2023/09/08 08:59:13;;;;;;;8.05;4.93;;;31.10;95.80;;;;;;5080995;28;20280;-70
2023/09/08 09:01:41;;;;;;;8.80;4.93;;;30.70;96.20;;;;;;5078412;28;20762;-70
2023/09/08 09:04:08;;;;;;;9.35;5.70;;;31.20;96.40;;;;;;5061203;28;20212;-70
2023/09/08 09:06:34;;;;;;;10.30;6.18;;;30.90;96.60;;;;;;5067439;28;20202;-72
2023/09/08 09:09:00;;;;;;;9.32;5.35;;;30.70;96.70;;;;;;5078928;28;21018;-71
2023/09/08 09:11:26;;;;;;;10.88;4.93;;;30.50;96.90;;;;;;5061827;28;20676;-71
2023/09/08 09:13:52;;;;;;;10.10;5.45;;;30.20;97.50;;;;;;5064558;28;20214;-71
2023/09/08 09:16:17;;;;;;;9.57;4.93;;;29.60;97.70;;;;;;5083177;28;20206;-72
2023/09/08 09:19:01;;;;;;;8.30;5.20;;;29.30;98.60;;;;;;5076681;28;20648;-71
2023/09/08 09:21:47;;;;;;;7.15;5.28;;;29.50;98.60;;;;;;5085043;28;20558;-71
2023/09/08 09:24:43;;;;;;;9.15;5.00;;;29.30;99.00;;;;;;5080671;28;20219;-71
2023/09/08 09:27:10;;;;;;;7.15;5.05;;;29.40;99.00;;;;;;5067862;28;20206;-71
2023/09/08 09:29:49;;;;;;;7.55;4.85;;;28.90;99.60;;;;;;5084717;28;20198;-70
2023/09/08 09:32:16;;;;;;;5.43;4.78;;;28.80;99.90;;;;;;5076401;28;20259;-72
2023/09/08 09:34:50;;;;;;;6.10;5.07;;;29.30;99.90;;;;;;5076568;28;20230;-71
2023/09/08 09:37:16;;;;;;;5.22;4.72;;;29.30;99.90;;;;;;5082821;28;20213;-71
2023/09/08 09:39:41;;;;;;;8.60;5.13;;;29.30;99.90;;;;;;5084980;28;20202;-71
2023/09/08 09:42:07;;;;;;;6.80;4.80;;;29.60;99.90;;;;;;5081978;28;20630;-70
2023/09/08 09:44:33;;;;;;;8.75;4.60;;;29.20;99.70;;;;;;5079676;28;20298;-74
2023/09/08 09:47:00;;;;;;;8.15;4.82;;;29.30;99.90;;;;;;5079773;28;20198;-71
2023/09/08 09:49:31;;;;;;;5.75;4.70;;;29.30;99.90;;;;;;5080202;28;20601;-72
2023/09/08 09:51:58;;;;;;;11.25;4.85;;;29.60;99.90;;;;;;5079217;28;20728;-72
2023/09/08 09:54:24;;;;;;;7.38;4.85;;;29.30;99.90;;;;;;5085112;28;20182;-71
2023/09/08 09:56:51;;;;;;;5.93;4.65;;;29.10;99.90;;;;;;5074425;28;20202;-72
2023/09/08 09:59:17;;;;;;;6.03;4.95;;;29.50;99.90;;;;;;5069617;28;20234;-70
2023/09/08 10:01:43;;;;;;;6.20;4.63;;;29.00;99.90;;;;;;5063374;28;20280;-72
2023/09/08 10:04:10;;;;;;;5.85;4.78;;;29.30;99.90;;;;;;5085844;28;20178;-71
2023/09/08 10:06:38;;;;;;;6.93;4.97;;;29.50;99.90;;;;;;5085198;28;20195;-71
2023/09/08 10:09:08;;;;;;;5.00;4.30;;;29.70;99.90;;;;;;5080547;28;20273;-72
2023/09/08 10:11:49;;;;;;;8.13;5.32;;;29.20;99.90;;;;;;5080142;28;20198;-72
2023/09/08 10:14:15;;;;;;;5.28;4.65;;;29.00;99.90;;;;;;5082361;28;20220;-74
2023/09/08 10:16:44;;;;;;;6.95;4.88;;;29.40;99.90;;;;;;5085112;28;20213;-73
2023/09/08 10:19:11;;;;;;;10.23;5.80;;;29.80;99.90;;;;;;5083917;28;20175;-71
2023/09/08 10:21:41;;;;;;;7.50;4.40;;;29.60;99.90;;;;;;5085823;28;20182;-73
2023/09/08 10:24:17;;;;;;;7.63;5.20;;;29.80;99.90;;;;;;5064764;28;20282;-73
2023/09/08 10:26:51;;;;;;;7.07;4.57;;;29.80;99.90;;;;;;5070585;28;20680;-72
2023/09/08 10:29:18;;;;;;;8.20;5.30;;;29.70;99.90;;;;;;5080143;28;20206;-70
2023/09/08 10:31:44;;;;;;;7.38;4.65;;;29.90;99.90;;;;;;5085312;28;20210;-75
2023/09/08 10:34:11;;;;;;;6.75;4.65;;;29.60;99.90;;;;;;5061516;28;20175;-74
2023/09/08 10:36:38;;;;;;;7.65;5.03;;;29.50;99.90;;;;;;5082434;28;20163;-75
2023/09/08 10:39:28;;;;;;;7.65;5.35;;;29.50;99.90;;;;;;5063555;28;20199;-74
2023/09/08 10:42:16;;;;;;;7.20;4.57;;;29.30;99.90;;;;;;5079601;28;20198;-73
2023/09/08 10:44:51;;;;;;;6.45;4.43;;;29.30;99.90;;;;;;5071804;28;20214;-73
2023/09/08 10:47:36;;;;;;;7.30;4.15;;;29.30;99.90;;;;;;5088093;28;20733;-75
2023/09/08 10:50:03;;;;;;;8.07;4.82;;;29.80;99.90;;;;;;5071290;28;20226;-76
2023/09/08 10:52:29;;;;;;;7.70;4.75;;;30.00;99.90;;;;;;5070237;28;20254;-77
2023/09/08 10:54:55;;;;;;;8.00;4.68;;;30.30;99.90;;;;;;5090181;28;20604;-75
2023/09/08 10:57:23;;;;;;;7.55;4.68;;;30.00;99.70;;;;;;5083763;28;20265;-75
2023/09/08 10:59:52;;;;;;;6.53;4.15;;;29.90;99.30;;;;;;5088745;28;20206;-75
2023/09/08 11:02:41;;;;;;;6.57;4.05;;;30.00;99.70;;;;;;5069806;28;20718;-75
2023/09/08 11:05:08;;;;;;;6.47;4.43;;;30.00;99.10;;;;;;5088190;28;20215;-76
2023/09/08 11:07:39;;;;;;;7.85;4.35;;;30.10;98.70;;;;;;5090189;28;20199;-76
2023/09/08 11:10:06;;;;;;;6.55;4.43;;;29.80;98.60;;;;;;5091066;28;20220;-75
2023/09/08 11:12:32;;;;;;;4.88;4.38;;;29.30;99.40;;;;;;5089188;28;20190;-76
2023/09/08 11:15:00;;;;;;;10.20;4.85;;;29.10;99.60;;;;;;5069523;28;20784;-77
2023/09/08 11:17:27;;;;;;;8.48;4.80;;;29.40;99.80;;;;;;5062823;28;20254;-75
2023/09/08 11:19:54;;;;;;;11.52;4.35;;;29.60;99.00;;;;;;5078317;28;20283;-75
2023/09/08 11:22:25;;;;;;;8.27;5.88;;;29.40;99.30;;;;;;5078554;28;20229;-75
2023/09/08 11:24:51;;;;;;;6.10;3.97;;;29.40;98.90;;;;;;5078765;28;20191;-76
2023/09/08 11:27:17;;;;;;;6.70;4.80;;;29.20;98.70;;;;;;5084491;28;20209;-73
2023/09/08 11:29:44;;;;;;;4.47;3.65;;;28.80;99.40;;;;;;5084410;28;20207;-71
2023/09/08 11:32:11;;;;;;;6.18;3.88;;;29.00;99.90;;;;;;5083419;28;20206;-74
2023/09/08 11:34:37;;;;;;;6.75;4.32;;;29.10;99.90;;;;;;5079903;28;20205;-72
2023/09/08 11:37:13;;;;;;;4.90;4.05;;;29.50;99.80;;;;;;5078452;28;20186;-75
2023/09/08 11:39:42;;;;;;;6.93;4.70;;;29.80;99.50;;;;;;5084761;28;20179;-74
2023/09/08 11:42:13;;;;;;;8.30;4.07;;;29.70;98.90;;;;;;5088702;28;20699;-74
2023/09/08 11:44:39;;;;;;;5.25;4.18;;;29.30;98.30;;;;;;5088804;28;20218;-72
2023/09/08 11:47:07;;;;;;;5.50;4.13;;;29.30;98.40;;;;;;5086355;28;20279;-72
2023/09/08 11:49:36;;;;;;;4.72;4.00;;;29.40;98.20;;;;;;5072901;28;20214;-75
2023/09/08 11:52:03;;;;;;;5.35;3.58;;;29.30;98.30;;;;;;5063675;28;20285;-71
2023/09/08 11:54:31;;;;;;;6.55;4.68;;;29.30;98.50;;;;;;5090568;28;20182;-71
2023/09/08 11:56:57;;;;;;;10.45;4.55;;;29.10;98.50;;;;;;5091094;28;20290;-71
2023/09/08 11:59:24;;;;;;;5.15;3.67;;;29.00;98.20;;;;;;5089846;28;20213;-71
2023/09/08 12:01:50;;;;;;;4.22;3.53;;;28.80;98.00;;;;;;5089648;28;20381;-72
2023/09/08 12:04:20;;;;;;;5.30;3.92;;;28.80;98.30;;;;;;5088449;28;20294;-71
2023/09/08 12:06:47;;;;;;;5.50;3.88;;;29.10;98.30;;;;;;5087431;28;20663;-71
2023/09/08 12:09:14;;;;;;;4.93;4.10;;;29.20;98.00;;;;;;5086941;28;20211;-71
2023/09/08 12:11:42;;;;;;;4.95;3.85;;;28.90;98.10;;;;;;5086658;28;20198;-72
2023/09/08 12:14:10;;;;;;;4.10;3.60;;;29.20;97.70;;;;;;5086201;28;20202;-72
2023/09/08 12:16:36;;;;;;;5.50;4.63;;;29.10;97.90;;;;;;5085341;28;20688;-72
2023/09/08 12:19:01;;;;;;;4.70;3.25;;;28.90;98.20;;;;;;5085054;28;20332;-72
2023/09/08 12:21:27;;;;;;;3.92;3.53;;;29.10;98.30;;;;;;5083233;28;20179;-72
2023/09/08 12:23:54;;;;;;;5.00;4.35;;;29.20;97.80;;;;;;5084801;28;20209;-72
2023/09/08 12:26:20;;;;;;;5.05;4.05;;;29.30;97.40;;;;;;5080678;28;20222;-71
2023/09/08 12:28:47;;;;;;;8.70;3.85;;;29.30;97.10;;;;;;5065333;28;20281;-71
2023/09/08 12:31:16;;;;;;;5.18;4.10;;;29.20;97.60;;;;;;5067344;28;20688;-72
2023/09/08 12:33:43;;;;;;;6.65;3.65;;;29.20;97.50;;;;;;5091172;28;20206;-72
2023/09/08 12:36:17;;;;;;;5.75;4.07;;;29.20;97.50;;;;;;5073158;28;20285;-72
2023/09/08 12:38:51;;;;;;;4.85;3.47;;;29.20;97.30;;;;;;5070774;28;20275;-72
2023/09/08 12:41:17;;;;;;;5.15;3.35;;;29.00;96.00;;;;;;5066017;28;20205;-72
2023/09/08 12:43:43;;;;;;;5.32;3.53;;;28.90;96.20;;;;;;5067945;28;20202;-71